createdAt,value
2023-06-19T00:00:36.879Z,94952.00
2023-06-19T00:01:36.960Z,94952.00
2023-06-19T00:02:37.052Z,94954.00
2023-06-19T00:03:37.010Z,94954.00
2023-06-19T00:04:36.970Z,94954.00
2023-06-19T00:05:36.991Z,94954.00
2023-06-19T00:06:36.993Z,94954.00
2023-06-19T00:07:37.027Z,94950.00
2023-06-19T00:08:37.071Z,94952.00
2023-06-19T00:09:37.100Z,94952.00
2023-06-19T00:10:37.139Z,94956.00
2023-06-19T00:11:37.184Z,94958.00
2023-06-19T00:12:37.230Z,94960.00
2023-06-19T00:13:37.246Z,94964.00
2023-06-19T00:14:37.240Z,94968.00
2023-06-19T00:15:37.226Z,94972.00
2023-06-19T00:16:37.304Z,94968.00
2023-06-19T00:17:37.265Z,94972.00
2023-06-19T00:18:37.250Z,94974.00
2023-06-19T00:19:37.326Z,94978.00
2023-06-19T00:20:37.217Z,94979.00
2023-06-19T00:21:37.207Z,94976.00
2023-06-19T00:22:37.184Z,94970.00
2023-06-19T00:23:37.197Z,94972.00
2023-06-19T00:24:37.219Z,94974.00
2023-06-19T00:25:37.177Z,94970.00
2023-06-19T00:26:37.184Z,94976.00
2023-06-19T00:27:37.201Z,94974.00
2023-06-19T00:28:37.200Z,94974.00
2023-06-19T00:29:37.225Z,94970.00
2023-06-19T00:30:37.235Z,94966.00
2023-06-19T00:31:37.238Z,94966.00
2023-06-19T00:32:37.284Z,94968.00
2023-06-19T00:33:37.295Z,94968.00
2023-06-19T00:34:37.262Z,94970.00
2023-06-19T00:35:37.272Z,94972.00
2023-06-19T00:36:37.284Z,94972.00
2023-06-19T00:37:37.310Z,94974.00
2023-06-19T00:38:37.360Z,94968.00
2023-06-19T00:39:37.348Z,94970.00
2023-06-19T00:40:37.380Z,94968.00
2023-06-19T00:41:37.379Z,94976.00
2023-06-19T00:42:37.403Z,94976.00
2023-06-19T00:43:37.488Z,94979.00
2023-06-19T00:44:37.464Z,94978.00
2023-06-19T00:45:37.497Z,94979.00
2023-06-19T00:46:38.194Z,94978.00
2023-06-19T00:47:37.495Z,94978.00
2023-06-19T00:48:37.545Z,94974.00
2023-06-19T00:49:37.643Z,94966.00
2023-06-19T00:50:37.581Z,94962.00
2023-06-19T00:51:37.644Z,94962.00
2023-06-19T00:52:37.642Z,94960.00
2023-06-19T00:53:37.681Z,94970.00
2023-06-19T00:54:37.716Z,94970.00
2023-06-19T00:55:37.720Z,94970.00
2023-06-19T00:56:37.699Z,94972.00
2023-06-19T00:57:37.684Z,94970.00
2023-06-19T00:58:37.725Z,94970.00
2023-06-19T00:59:37.676Z,94968.00
2023-06-19T01:00:37.689Z,94968.00
2023-06-19T01:01:37.694Z,94970.00
2023-06-19T01:02:38.029Z,94970.00
2023-06-19T01:03:37.938Z,94974.00
2023-06-19T01:04:37.724Z,94976.00
2023-06-19T01:05:37.639Z,94979.00
2023-06-19T01:06:37.609Z,94979.00
2023-06-19T01:07:37.637Z,94974.00
2023-06-19T01:08:37.639Z,94976.00
2023-06-19T01:09:37.664Z,94976.00
2023-06-19T01:10:37.663Z,94974.00
2023-06-19T01:11:37.612Z,94974.00
2023-06-19T01:12:37.661Z,94978.00
2023-06-19T01:13:37.717Z,94978.00
2023-06-19T01:14:37.713Z,94985.00
2023-06-19T01:15:37.797Z,94985.00
2023-06-19T01:16:37.882Z,94981.00
2023-06-19T01:17:37.894Z,94985.00
2023-06-19T01:18:37.923Z,94989.00
2023-06-19T01:19:37.941Z,94989.00
2023-06-19T01:20:37.969Z,94993.00
2023-06-19T01:21:37.985Z,94993.00
2023-06-19T01:22:38.024Z,94991.00
2023-06-19T01:23:38.081Z,94989.00
2023-06-19T01:24:38.156Z,94987.00
2023-06-19T01:25:38.276Z,94987.00
2023-06-19T01:26:38.240Z,94987.00
2023-06-19T01:27:38.285Z,94985.00
2023-06-19T01:28:38.325Z,94987.00
2023-06-19T01:29:38.333Z,94989.00
2023-06-19T01:30:38.370Z,94991.00
2023-06-19T01:31:38.343Z,94993.00
2023-06-19T01:32:38.383Z,94993.00
2023-06-19T01:33:38.385Z,94991.00
2023-06-19T01:34:40.955Z,94983.00
2023-06-19T01:35:38.392Z,94978.00
2023-06-19T01:36:38.359Z,94972.00
2023-06-19T01:37:38.405Z,94974.00
2023-06-19T01:38:38.376Z,94978.00
2023-06-19T01:39:38.378Z,94981.00
2023-06-19T01:40:38.325Z,94979.00
2023-06-19T01:41:38.326Z,94983.00
2023-06-19T01:42:38.334Z,94981.00
2023-06-19T01:43:38.349Z,94983.00
2023-06-19T01:44:38.340Z,94987.00
2023-06-19T01:45:38.301Z,94983.00
2023-06-19T01:46:38.341Z,94985.00
2023-06-19T01:47:38.328Z,94991.00
2023-06-19T01:48:38.319Z,94993.00
2023-06-19T01:49:38.289Z,94991.00
2023-06-19T01:50:38.283Z,94989.00
2023-06-19T01:51:38.312Z,94985.00
2023-06-19T01:52:38.287Z,94987.00
2023-06-19T01:53:38.256Z,94993.00
2023-06-19T01:54:38.257Z,94999.00
2023-06-19T01:55:38.250Z,94997.00
2023-06-19T01:56:38.267Z,95001.00
2023-06-19T01:57:38.210Z,94997.00
2023-06-19T01:58:38.231Z,95001.00
2023-06-19T01:59:38.246Z,95001.00
2023-06-19T02:00:38.230Z,95003.00
2023-06-19T02:01:38.234Z,95005.00
2023-06-19T02:02:38.320Z,95003.00
2023-06-19T02:03:38.317Z,95001.00
2023-06-19T02:04:38.203Z,95005.00
2023-06-19T02:05:38.185Z,95001.00
2023-06-19T02:06:38.187Z,95001.00
2023-06-19T02:07:38.173Z,95003.00
2023-06-19T02:08:38.190Z,95001.00
2023-06-19T02:09:38.168Z,94999.00
2023-06-19T02:10:38.169Z,94999.00
2023-06-19T02:11:38.139Z,94999.00
2023-06-19T02:12:38.190Z,94999.00
2023-06-19T02:13:40.189Z,95001.00
2023-06-19T02:14:38.321Z,95003.00
2023-06-19T02:15:38.355Z,95001.00
2023-06-19T02:16:38.437Z,95005.00
2023-06-19T02:17:38.451Z,95001.00
2023-06-19T02:18:38.453Z,95003.00
2023-06-19T02:19:38.445Z,95005.00
2023-06-19T02:20:38.469Z,95007.00
2023-06-19T02:21:38.517Z,95007.00
2023-06-19T02:22:38.543Z,95007.00
2023-06-19T02:23:38.584Z,95009.00
2023-06-19T02:24:38.646Z,95013.00
2023-06-19T02:25:38.618Z,95011.00
2023-06-19T02:26:38.682Z,95011.00
2023-06-19T02:27:38.703Z,95013.00
2023-06-19T02:28:39.001Z,95015.00
2023-06-19T02:29:38.719Z,95007.00
2023-06-19T02:30:38.719Z,95009.00
2023-06-19T02:31:38.753Z,95009.00
2023-06-19T02:32:38.822Z,95007.00
2023-06-19T02:33:38.835Z,95009.00
2023-06-19T02:34:38.906Z,95011.00
2023-06-19T02:35:38.959Z,95011.00
2023-06-19T02:36:39.028Z,95013.00
2023-06-19T02:37:39.114Z,95017.00
2023-06-19T02:38:39.189Z,95019.00
2023-06-19T02:39:39.164Z,95019.00
2023-06-19T02:40:39.160Z,95017.00
2023-06-19T02:41:39.221Z,95019.00
2023-06-19T02:42:39.200Z,95015.00
2023-06-19T02:43:39.218Z,95015.00
2023-06-19T02:44:39.264Z,95017.00
2023-06-19T02:45:39.277Z,95015.00
2023-06-19T02:46:39.285Z,95015.00
2023-06-19T02:47:39.384Z,95019.00
2023-06-19T02:48:39.380Z,95021.00
2023-06-19T02:50:58.684Z,95025.00
2023-06-19T02:51:58.684Z,95026.00
2023-06-19T02:52:58.641Z,95025.00
2023-06-19T02:53:58.657Z,95028.00
2023-06-19T02:54:58.700Z,95028.00
2023-06-19T02:55:58.676Z,95028.00
2023-06-19T02:56:58.669Z,95028.00
2023-06-19T02:57:58.626Z,95030.00
2023-06-19T02:58:58.640Z,95030.00
2023-06-19T02:59:58.916Z,95030.00
2023-06-19T03:00:58.628Z,95034.00
2023-06-19T03:01:58.589Z,95038.00
2023-06-19T03:02:58.751Z,95038.00
2023-06-19T03:03:58.617Z,95038.00
2023-06-19T03:04:58.610Z,95040.00
2023-06-19T03:05:58.558Z,95042.00
2023-06-19T03:06:58.565Z,95042.00
2023-06-19T03:07:58.538Z,95040.00
2023-06-19T03:08:58.562Z,95044.00
2023-06-19T03:09:58.566Z,95040.00
2023-06-19T03:10:58.563Z,95040.00
2023-06-19T03:11:58.554Z,95038.00
2023-06-19T03:12:58.497Z,95042.00
2023-06-19T03:13:58.540Z,95048.00
2023-06-19T03:14:58.505Z,95048.00
2023-06-19T03:15:58.526Z,95048.00
2023-06-19T03:16:58.539Z,95054.00
2023-06-19T03:17:58.579Z,95052.00
2023-06-19T03:18:58.589Z,95052.00
2023-06-19T03:19:58.504Z,95054.00
2023-06-19T03:20:58.461Z,95056.00
2023-06-19T03:21:58.455Z,95054.00
2023-06-19T03:22:58.496Z,95056.00
2023-06-19T03:23:58.487Z,95056.00
2023-06-19T03:24:58.452Z,95058.00
2023-06-19T03:25:58.456Z,95054.00
2023-06-19T03:26:58.462Z,95056.00
2023-06-19T03:27:58.465Z,95054.00
2023-06-19T03:28:58.431Z,95058.00
2023-06-19T03:29:58.465Z,95058.00
2023-06-19T03:30:58.423Z,95056.00
2023-06-19T03:31:58.429Z,95060.00
2023-06-19T03:32:58.457Z,95060.00
2023-06-19T03:33:58.409Z,95058.00
2023-06-19T03:34:58.414Z,95058.00
2023-06-19T03:35:58.402Z,95060.00
2023-06-19T03:36:58.357Z,95064.00
2023-06-19T03:37:58.358Z,95064.00
2023-06-19T03:38:58.411Z,95060.00
2023-06-19T03:39:58.394Z,95062.00
2023-06-19T03:40:58.470Z,95062.00
2023-06-19T03:41:58.552Z,95060.00
2023-06-19T03:42:58.518Z,95062.00
2023-06-19T03:43:58.594Z,95060.00
2023-06-19T03:44:58.609Z,95062.00
2023-06-19T03:45:58.671Z,95056.00
2023-06-19T03:46:58.645Z,95058.00
2023-06-19T03:47:58.774Z,95058.00
2023-06-19T03:48:58.759Z,95062.00
2023-06-19T03:50:07.604Z,95062.00
2023-06-19T03:50:59.772Z,95060.00
2023-06-19T03:51:58.797Z,95066.00
2023-06-19T03:52:58.795Z,95064.00
2023-06-19T03:53:59.157Z,95066.00
2023-06-19T03:54:58.754Z,95066.00
2023-06-19T03:55:58.782Z,95066.00
2023-06-19T03:56:58.780Z,95062.00
2023-06-19T03:57:59.017Z,95064.00
2023-06-19T03:58:59.097Z,95062.00
2023-06-19T03:59:58.727Z,95066.00
2023-06-19T04:00:58.784Z,95064.00
2023-06-19T04:01:58.893Z,95064.00
2023-06-19T04:02:58.914Z,95060.00
2023-06-19T04:03:58.988Z,95062.00
2023-06-19T04:04:58.917Z,95060.00
2023-06-19T04:05:58.949Z,95064.00
2023-06-19T04:06:58.994Z,95062.00
2023-06-19T04:07:58.997Z,95064.00
2023-06-19T04:08:59.047Z,95064.00
2023-06-19T04:09:59.105Z,95066.00
2023-06-19T04:10:59.063Z,95066.00
2023-06-19T04:11:59.091Z,95070.00
2023-06-19T04:12:59.151Z,95066.00
2023-06-19T04:13:59.166Z,95066.00
2023-06-19T04:14:59.158Z,95066.00
2023-06-19T04:15:59.251Z,95066.00
2023-06-19T04:16:59.173Z,95064.00
2023-06-19T04:17:59.237Z,95066.00
2023-06-19T04:18:59.235Z,95068.00
2023-06-19T04:19:59.234Z,95070.00
2023-06-19T04:20:59.204Z,95068.00
2023-06-19T04:21:59.217Z,95066.00
2023-06-19T04:22:59.209Z,95066.00
2023-06-19T04:23:59.313Z,95070.00
2023-06-19T04:24:59.213Z,95074.00
2023-06-19T04:25:59.243Z,95072.00
2023-06-19T04:26:59.218Z,95070.00
2023-06-19T04:27:59.269Z,95070.00
2023-06-19T04:28:59.265Z,95072.00
2023-06-19T04:29:59.303Z,95070.00
2023-06-19T04:30:59.298Z,95072.00
2023-06-19T04:31:59.299Z,95074.00
2023-06-19T04:32:59.419Z,95072.00
2023-06-19T04:33:59.370Z,95072.00
2023-06-19T04:34:59.383Z,95068.00
2023-06-19T04:35:59.472Z,95072.00
2023-06-19T04:36:59.549Z,95066.00
2023-06-19T04:37:59.530Z,95062.00
2023-06-19T04:38:59.579Z,95064.00
2023-06-19T04:39:59.776Z,95064.00
2023-06-19T04:40:59.664Z,95066.00
2023-06-19T04:41:59.608Z,95064.00
2023-06-19T04:42:59.638Z,95068.00
2023-06-19T04:43:59.920Z,95068.00
2023-06-19T04:44:59.670Z,95072.00
2023-06-19T04:45:59.617Z,95072.00
2023-06-19T04:46:59.585Z,95070.00
2023-06-19T04:47:59.572Z,95070.00
2023-06-19T04:48:59.576Z,95074.00
2023-06-19T04:49:59.587Z,95074.00
2023-06-19T04:50:59.565Z,95078.00
2023-06-19T04:51:59.620Z,95080.00
2023-06-19T04:52:59.693Z,95076.00
2023-06-19T04:53:59.716Z,95078.00
2023-06-19T04:54:59.827Z,95078.00
2023-06-19T04:56:02.390Z,95078.00
2023-06-19T04:56:59.845Z,95076.00
2023-06-19T04:57:59.856Z,95076.00
2023-06-19T04:58:59.839Z,95072.00
2023-06-19T04:59:59.848Z,95078.00
2023-06-19T05:02:31.161Z,95076.00
2023-06-19T05:03:39.928Z,95080.00
2023-06-19T05:04:39.492Z,95083.00
2023-06-19T05:05:39.548Z,95080.00
2023-06-19T05:06:39.474Z,95081.00
2023-06-19T05:07:39.530Z,95080.00
2023-06-19T05:08:39.572Z,95083.00
2023-06-19T05:09:39.462Z,95083.00
2023-06-19T05:10:40.351Z,95083.00
2023-06-19T05:11:39.440Z,95085.00
2023-06-19T05:12:40.362Z,95085.00
2023-06-19T05:13:40.410Z,95087.00
2023-06-19T05:14:39.392Z,95085.00
2023-06-19T05:15:39.440Z,95087.00
2023-06-19T05:16:39.412Z,95089.00
2023-06-19T05:17:39.477Z,95089.00
2023-06-19T05:18:39.340Z,95091.00
2023-06-19T05:19:39.418Z,95093.00
2023-06-19T05:20:39.340Z,95093.00
2023-06-19T05:21:39.368Z,95097.00
2023-06-19T05:22:39.385Z,95097.00
2023-06-19T05:23:39.270Z,95093.00
2023-06-19T05:24:39.514Z,95095.00
2023-06-19T05:25:39.348Z,95091.00
2023-06-19T05:26:39.864Z,95091.00
2023-06-19T05:27:39.480Z,95091.00
2023-06-19T05:28:40.424Z,95091.00
2023-06-19T05:29:40.377Z,95091.00
2023-06-19T05:30:39.533Z,95095.00
2023-06-19T05:31:39.636Z,95097.00
2023-06-19T05:32:39.666Z,95099.00
2023-06-19T05:33:39.652Z,95099.00
2023-06-19T05:34:39.743Z,95101.00
2023-06-19T05:35:39.674Z,95099.00
2023-06-19T05:36:39.640Z,95095.00
2023-06-19T05:37:39.568Z,95101.00
2023-06-19T05:38:39.559Z,95099.00
2023-06-19T05:39:40.188Z,95099.00
2023-06-19T05:40:39.790Z,95099.00
2023-06-19T05:41:39.875Z,95103.00
2023-06-19T05:42:39.896Z,95105.00
2023-06-19T05:43:39.813Z,95107.00
2023-06-19T05:44:40.431Z,95105.00
2023-06-19T05:45:40.042Z,95105.00
2023-06-19T05:46:53.939Z,95111.00
2023-06-19T05:48:00.692Z,95109.00
2023-06-19T05:48:59.208Z,95107.00
2023-06-19T05:49:59.290Z,95109.00
2023-06-19T05:50:59.158Z,95109.00
2023-06-19T05:51:59.692Z,95111.00
2023-06-19T05:52:59.410Z,95109.00
2023-06-19T05:53:59.306Z,95113.00
2023-06-19T05:54:59.191Z,95115.00
2023-06-19T05:55:59.286Z,95117.00
2023-06-19T05:57:00.277Z,95115.00
2023-06-19T05:58:00.215Z,95115.00
2023-06-19T05:59:00.180Z,95117.00
2023-06-19T05:59:59.302Z,95117.00
2023-06-19T06:01:00.167Z,95119.00
2023-06-19T06:01:59.221Z,95119.00
2023-06-19T06:02:59.657Z,95121.00
2023-06-19T06:03:59.378Z,95123.00
2023-06-19T06:04:59.823Z,95127.00
2023-06-19T06:05:59.417Z,95123.00
2023-06-19T06:06:59.448Z,95125.00
2023-06-19T06:07:59.612Z,95127.00
2023-06-19T06:09:00.145Z,95128.00
2023-06-19T06:10:00.373Z,95128.00
2023-06-19T06:11:00.210Z,95128.00
2023-06-19T06:12:00.460Z,95130.00
2023-06-19T06:12:59.995Z,95132.00
2023-06-19T06:14:00.286Z,95130.00
2023-06-19T06:15:00.909Z,95128.00
2023-06-19T06:16:00.625Z,95132.00
2023-06-19T06:17:00.857Z,95134.00
2023-06-19T06:18:01.088Z,95132.00
2023-06-19T06:19:01.144Z,95134.00
2023-06-19T06:20:00.782Z,95144.00
2023-06-19T06:21:01.405Z,95142.00
2023-06-19T06:22:01.022Z,95144.00
2023-06-19T06:23:01.629Z,95144.00
2023-06-19T06:24:00.624Z,95134.00
2023-06-19T06:25:00.691Z,95132.00
2023-06-19T06:26:00.975Z,95146.00
2023-06-19T06:27:00.572Z,95144.00
2023-06-19T06:28:02.138Z,95144.00
2023-06-19T06:29:00.837Z,95144.00
2023-06-19T06:30:01.011Z,95142.00
2023-06-19T06:31:01.705Z,95144.00
2023-06-19T06:32:01.581Z,95144.00
2023-06-19T06:33:00.785Z,95142.00
2023-06-19T06:34:00.729Z,95144.00
2023-06-19T06:35:00.493Z,95142.00
2023-06-19T06:36:00.491Z,95142.00
2023-06-19T06:37:05.905Z,95142.00
2023-06-19T06:38:01.618Z,95144.00
2023-06-19T06:39:00.552Z,95142.00
2023-06-19T06:40:00.631Z,95146.00
2023-06-19T06:41:00.963Z,95150.00
2023-06-19T06:42:00.783Z,95148.00
2023-06-19T06:43:01.499Z,95152.00
2023-06-19T06:44:01.275Z,95152.00
2023-06-19T06:45:01.623Z,95150.00
2023-06-19T06:46:01.157Z,95150.00
2023-06-19T06:47:01.176Z,95152.00
2023-06-19T06:48:00.868Z,95154.00
2023-06-19T06:49:01.723Z,95154.00
2023-06-19T06:50:00.771Z,95158.00
2023-06-19T06:51:01.711Z,95158.00
2023-06-19T06:52:00.787Z,95156.00
2023-06-19T06:53:01.296Z,95154.00
2023-06-19T06:54:01.819Z,95156.00
2023-06-19T06:55:01.257Z,95154.00
2023-06-19T06:56:00.764Z,95156.00
2023-06-19T06:57:01.132Z,95154.00
2023-06-19T06:58:01.598Z,95150.00
2023-06-19T06:59:01.562Z,95154.00
2023-06-19T07:00:01.609Z,95150.00
2023-06-19T07:01:01.575Z,95154.00
2023-06-19T07:02:01.734Z,95154.00
2023-06-19T07:03:01.496Z,95158.00
2023-06-19T07:04:01.289Z,95152.00
2023-06-19T07:05:01.336Z,95156.00
2023-06-19T07:06:03.000Z,95150.00
2023-06-19T07:07:01.573Z,95156.00
2023-06-19T07:08:02.351Z,95152.00
2023-06-19T07:09:01.645Z,95152.00
2023-06-19T07:10:01.295Z,95150.00
2023-06-19T07:11:01.350Z,95148.00
2023-06-19T07:12:02.216Z,95148.00
2023-06-19T07:13:02.126Z,95150.00
2023-06-19T07:14:01.643Z,95150.00
2023-06-19T07:15:01.543Z,95148.00
2023-06-19T07:16:01.766Z,95150.00
2023-06-19T07:17:01.409Z,95148.00
2023-06-19T07:18:02.197Z,95150.00
2023-06-19T07:19:01.701Z,95148.00
2023-06-19T07:20:01.773Z,95144.00
2023-06-19T07:21:02.579Z,95148.00
2023-06-19T07:22:01.859Z,95148.00
2023-06-19T07:23:02.282Z,95150.00
2023-06-19T07:24:02.054Z,95144.00
2023-06-19T07:25:01.771Z,95148.00
2023-06-19T07:26:02.315Z,95148.00
2023-06-19T07:27:02.302Z,95146.00
2023-06-19T07:28:02.058Z,95144.00
2023-06-19T07:29:02.004Z,95144.00
2023-06-19T07:30:02.103Z,95148.00
2023-06-19T07:31:02.809Z,95142.00
2023-06-19T07:32:02.099Z,95132.00
2023-06-19T07:33:02.812Z,95132.00
2023-06-19T07:34:03.057Z,95134.00
2023-06-19T07:35:03.723Z,95132.00
2023-06-19T07:36:02.985Z,95130.00
2023-06-19T07:37:05.821Z,95130.00
2023-06-19T07:38:02.328Z,95132.00
2023-06-19T07:39:03.689Z,95134.00
2023-06-19T07:40:02.946Z,95130.00
2023-06-19T07:41:03.388Z,95130.00
2023-06-19T07:42:02.738Z,95127.00
2023-06-19T07:43:02.575Z,95127.00
2023-06-19T07:44:02.243Z,95125.00
2023-06-19T07:45:02.945Z,95123.00
2023-06-19T07:46:03.581Z,95121.00
2023-06-19T07:47:03.581Z,95125.00
2023-06-19T07:48:03.680Z,95121.00
2023-06-19T07:49:03.757Z,95121.00
2023-06-19T07:50:02.691Z,95119.00
2023-06-19T07:51:04.987Z,95121.00
2023-06-19T07:52:03.973Z,95121.00
2023-06-19T07:53:04.362Z,95117.00
2023-06-19T07:54:02.354Z,95115.00
2023-06-19T07:55:03.139Z,95113.00
2023-06-19T07:56:03.274Z,95111.00
2023-06-19T07:57:03.196Z,95113.00
2023-06-19T07:58:03.204Z,95111.00
2023-06-19T07:59:05.091Z,95109.00
2023-06-19T08:00:03.479Z,95111.00
2023-06-19T08:01:02.920Z,95113.00
2023-06-19T08:02:03.084Z,95111.00
2023-06-19T08:03:04.004Z,95109.00
2023-06-19T08:04:03.842Z,95111.00
2023-06-19T08:05:03.740Z,95111.00
2023-06-19T08:06:02.943Z,95111.00
2023-06-19T08:07:04.682Z,95107.00
2023-06-19T08:08:03.709Z,95107.00
2023-06-19T08:09:03.215Z,95105.00
2023-06-19T08:10:13.006Z,95107.00
2023-06-19T08:11:03.934Z,95105.00
2023-06-19T08:12:03.749Z,95103.00
2023-06-19T08:13:03.716Z,95101.00
2023-06-19T08:14:03.751Z,95097.00
2023-06-19T08:15:03.712Z,95099.00
2023-06-19T08:16:02.985Z,95095.00
2023-06-19T08:17:03.857Z,95095.00
2023-06-19T08:18:03.005Z,95093.00
2023-06-19T08:19:02.731Z,95091.00
2023-06-19T08:20:02.755Z,95087.00
2023-06-19T08:21:03.690Z,95089.00
2023-06-19T08:22:02.743Z,95085.00
2023-06-19T08:23:03.814Z,95083.00
2023-06-19T08:24:02.782Z,95081.00
2023-06-19T08:25:02.777Z,95078.00
2023-06-19T08:26:02.809Z,95078.00
2023-06-19T08:27:02.755Z,95080.00
2023-06-19T08:28:02.908Z,95078.00
2023-06-19T08:29:02.748Z,95074.00
2023-06-19T08:30:02.787Z,95076.00
2023-06-19T08:31:02.802Z,95076.00
2023-06-19T08:32:02.797Z,95074.00
2023-06-19T08:33:02.710Z,95072.00
2023-06-19T08:34:02.743Z,95072.00
2023-06-19T08:35:02.592Z,95072.00
2023-06-19T08:36:02.608Z,95068.00
2023-06-19T08:37:02.827Z,95068.00
2023-06-19T08:38:02.817Z,95066.00
2023-06-19T08:39:02.643Z,95066.00
2023-06-19T08:40:02.743Z,95064.00
2023-06-19T08:41:03.240Z,95064.00
2023-06-19T08:42:02.833Z,95064.00
2023-06-19T08:43:02.698Z,95060.00
2023-06-19T08:44:02.888Z,95060.00
2023-06-19T08:45:02.771Z,95060.00
2023-06-19T08:46:02.736Z,95060.00
2023-06-19T08:47:02.792Z,95054.00
2023-06-19T08:48:02.683Z,95056.00
2023-06-19T08:49:02.630Z,95054.00
2023-06-19T08:50:03.261Z,95056.00
2023-06-19T08:51:02.608Z,95056.00
2023-06-19T08:52:03.104Z,95056.00
2023-06-19T08:53:02.599Z,95056.00
2023-06-19T08:54:02.661Z,95050.00
2023-06-19T08:55:02.690Z,95052.00
2023-06-19T08:56:02.688Z,95048.00
2023-06-19T08:57:02.914Z,95050.00
2023-06-19T08:58:02.619Z,95052.00
2023-06-19T08:59:02.677Z,95050.00
2023-06-19T09:00:02.577Z,95050.00
2023-06-19T09:01:02.891Z,95048.00
2023-06-19T09:02:02.656Z,95050.00
2023-06-19T09:03:12.557Z,95048.00
2023-06-19T09:04:03.644Z,95046.00
2023-06-19T09:05:02.675Z,95044.00
2023-06-19T09:06:02.587Z,95044.00
2023-06-19T09:07:02.660Z,95036.00
2023-06-19T09:08:02.519Z,95038.00
2023-06-19T09:09:02.641Z,95036.00
2023-06-19T09:10:02.660Z,95036.00
2023-06-19T09:11:02.650Z,95034.00
2023-06-19T09:12:02.879Z,95032.00
2023-06-19T09:13:02.463Z,95036.00
2023-06-19T09:14:02.746Z,95032.00
2023-06-19T09:15:02.497Z,95034.00
2023-06-19T09:16:02.510Z,95032.00
2023-06-19T09:17:02.807Z,95032.00
2023-06-19T09:18:02.560Z,95032.00
2023-06-19T09:19:02.707Z,95030.00
2023-06-19T09:20:02.950Z,95028.00
2023-06-19T09:21:03.633Z,95023.00
2023-06-19T09:22:02.691Z,95021.00
2023-06-19T09:23:02.646Z,95023.00
2023-06-19T09:24:02.733Z,95019.00
2023-06-19T09:25:02.843Z,95019.00
2023-06-19T09:26:02.730Z,95019.00
2023-06-19T09:27:02.933Z,95015.00
2023-06-19T09:28:02.728Z,95019.00
2023-06-19T09:29:02.658Z,95019.00
2023-06-19T09:30:03.316Z,95013.00
2023-06-19T09:31:02.781Z,95013.00
2023-06-19T09:32:02.890Z,95011.00
2023-06-19T09:33:02.904Z,95013.00
2023-06-19T09:34:02.975Z,95009.00
2023-06-19T09:35:02.824Z,95011.00
2023-06-19T09:36:02.842Z,95011.00
2023-06-19T09:37:02.874Z,95007.00
2023-06-19T09:38:02.841Z,95005.00
2023-06-19T09:39:02.920Z,95003.00
2023-06-19T09:40:02.847Z,95005.00
2023-06-19T09:41:03.681Z,95007.00
2023-06-19T09:42:02.911Z,95007.00
2023-06-19T09:43:04.492Z,95009.00
2023-06-19T09:44:02.753Z,95009.00
2023-06-19T09:45:03.914Z,95009.00
2023-06-19T09:46:03.038Z,95007.00
2023-06-19T09:47:02.774Z,95009.00
2023-06-19T09:48:02.928Z,95001.00
2023-06-19T09:49:03.811Z,94999.00
2023-06-19T09:50:03.375Z,94997.00
2023-06-19T09:51:03.526Z,94997.00
2023-06-19T09:52:04.971Z,94999.00
2023-06-19T09:53:05.312Z,94995.00
2023-06-19T09:54:03.064Z,94995.00
2023-06-19T09:55:03.962Z,94995.00
2023-06-19T09:56:03.943Z,94997.00
2023-06-19T09:57:03.619Z,94999.00
2023-06-19T09:58:04.436Z,94997.00
2023-06-19T09:59:04.719Z,94995.00
2023-06-19T10:00:04.554Z,94991.00
2023-06-19T10:01:04.096Z,94993.00
2023-06-19T10:02:04.387Z,94991.00
2023-06-19T10:03:04.319Z,94993.00
2023-06-19T10:04:05.437Z,94991.00
2023-06-19T10:06:23.588Z,94987.00
2023-06-19T10:07:24.066Z,94987.00
2023-06-19T10:08:24.019Z,94991.00
2023-06-19T10:09:23.965Z,94985.00
2023-06-19T10:10:23.822Z,94989.00
2023-06-19T10:11:23.473Z,94989.00
2023-06-19T10:12:24.911Z,94985.00
2023-06-19T10:13:32.484Z,94983.00
2023-06-19T10:14:23.644Z,94981.00
2023-06-19T10:15:23.095Z,94979.00
2023-06-19T10:16:23.708Z,94978.00
2023-06-19T10:17:23.215Z,94979.00
2023-06-19T10:18:23.413Z,94974.00
2023-06-19T10:19:23.615Z,94970.00
2023-06-19T10:20:24.869Z,94972.00
2023-06-19T10:21:25.925Z,94972.00
2023-06-19T10:22:24.253Z,94970.00
2023-06-19T10:23:23.605Z,94966.00
2023-06-19T10:28:22.722Z,94968.00
2023-06-19T10:29:22.877Z,94962.00
2023-06-19T10:30:23.420Z,94962.00
2023-06-19T10:31:22.098Z,94956.00
2023-06-19T10:32:22.064Z,94952.00
2023-06-19T10:33:22.050Z,94962.00
2023-06-19T10:34:22.041Z,94954.00
2023-06-19T10:35:21.993Z,94952.00
2023-06-19T10:36:22.106Z,94954.00
2023-06-19T10:37:22.080Z,94950.00
2023-06-19T10:38:22.166Z,94948.00
2023-06-19T10:39:22.191Z,94950.00
2023-06-19T10:40:22.602Z,94950.00
2023-06-19T10:41:22.004Z,94950.00
2023-06-19T10:42:21.958Z,94952.00
2023-06-19T10:43:22.226Z,94948.00
2023-06-19T10:44:22.045Z,94946.00
2023-06-19T10:45:21.989Z,94938.00
2023-06-19T10:46:22.112Z,94938.00
2023-06-19T10:47:22.376Z,94936.00
2023-06-19T10:48:22.146Z,94934.00
2023-06-19T10:49:21.939Z,94934.00
2023-06-19T10:50:22.152Z,94934.00
2023-06-19T10:51:21.908Z,94931.00
2023-06-19T10:52:21.938Z,94931.00
2023-06-19T10:53:22.126Z,94925.00
2023-06-19T10:54:21.915Z,94923.00
2023-06-19T10:55:22.150Z,94921.00
2023-06-19T10:56:21.949Z,94923.00
2023-06-19T10:57:21.885Z,94921.00
2023-06-19T10:58:22.380Z,94919.00
2023-06-19T10:59:21.898Z,94917.00
2023-06-19T11:00:22.151Z,94913.00
2023-06-19T11:01:21.896Z,94915.00
2023-06-19T11:02:21.972Z,94915.00
2023-06-19T11:03:22.194Z,94915.00
2023-06-19T11:04:21.877Z,94909.00
2023-06-19T11:05:22.458Z,94909.00
2023-06-19T11:06:21.901Z,94903.00
2023-06-19T11:07:21.857Z,94903.00
2023-06-19T11:08:21.986Z,94905.00
2023-06-19T11:09:21.798Z,94905.00
2023-06-19T11:10:21.908Z,94905.00
2023-06-19T11:11:21.810Z,94901.00
2023-06-19T11:12:21.863Z,94897.00
2023-06-19T11:13:22.179Z,94899.00
2023-06-19T11:14:22.094Z,94891.00
2023-06-19T11:15:21.834Z,94887.00
2023-06-19T11:16:21.836Z,94887.00
2023-06-19T11:17:21.916Z,94889.00
2023-06-19T11:18:21.863Z,94887.00
2023-06-19T11:19:21.933Z,94885.00
2023-06-19T11:20:22.369Z,94876.00
2023-06-19T11:21:21.763Z,94885.00
2023-06-19T11:22:21.735Z,94874.00
2023-06-19T11:23:21.725Z,94874.00
2023-06-19T11:24:22.408Z,94872.00
2023-06-19T11:25:21.729Z,94872.00
2023-06-19T11:26:22.022Z,94872.00
2023-06-19T11:27:21.870Z,94872.00
2023-06-19T11:28:22.029Z,94870.00
2023-06-19T11:29:22.154Z,94866.00
2023-06-19T11:30:22.051Z,94862.00
2023-06-19T11:31:22.964Z,94862.00
2023-06-19T11:32:22.267Z,94862.00
2023-06-19T11:33:22.070Z,94862.00
2023-06-19T11:34:24.649Z,94856.00
2023-06-19T11:35:22.066Z,94860.00
2023-06-19T11:36:22.031Z,94854.00
2023-06-19T11:37:22.040Z,94856.00
2023-06-19T11:38:21.992Z,94856.00
2023-06-19T11:39:22.110Z,94854.00
2023-06-19T11:40:22.220Z,94854.00
2023-06-19T11:41:22.018Z,94852.00
2023-06-19T11:42:22.048Z,94852.00
2023-06-19T11:43:21.978Z,94852.00
2023-06-19T11:44:22.037Z,94852.00
2023-06-19T11:45:22.079Z,94852.00
2023-06-19T11:46:21.993Z,94844.00
2023-06-19T11:47:22.000Z,94846.00
2023-06-19T11:48:22.063Z,94848.00
2023-06-19T11:49:21.996Z,94842.00
2023-06-19T11:50:23.378Z,94848.00
2023-06-19T11:51:22.001Z,94842.00
2023-06-19T11:52:21.884Z,94838.00
2023-06-19T11:53:21.939Z,94836.00